Time;durP1;ratioP1;P1;durP2;ratioP2;P2;SDS_P1;SDS_P2;PMS_P1;PMS_P2;Temp;Humidity;BMP_temperature;BMP_pressure;BME280_temperature;BME280_humidity;BME280_pressure;Samples;Min_cycle;Max_cycle;Signal;HPM_P1;HPM_P2
2022/11/16 00:00:31;;;;;;;21.63;16.13;;;;;;;;;;5279234;28;20060;-81
2022/11/16 00:03:03;;;;;;;22.35;16.27;;;;;;;;;;5263382;28;20362;-81
2022/11/16 00:05:34;;;;;;;21.00;16.25;;;;;;;;;;5276305;28;20029;-81
2022/11/16 00:08:06;;;;;;;23.93;18.13;;;;;;;;;;5280851;28;20029;-81
2022/11/16 00:10:37;;;;;;;23.33;17.00;;;;;;;;;;5280034;28;20729;-82
2022/11/16 00:13:08;;;;;;;23.07;18.27;;;;;;;;;;5281298;28;20259;-82
2022/11/16 00:15:39;;;;;;;20.33;16.73;;;;;;;;;;5279432;28;20274;-82
2022/11/16 00:18:10;;;;;;;24.77;17.77;;;;;;;;;;5281271;28;20770;-82
2022/11/16 00:20:41;;;;;;;23.77;17.90;;;;;;;;;;5272376;28;20287;-83
2022/11/16 00:23:13;;;;;;;27.00;17.43;;;;;;;;;;5279115;28;20089;-82
2022/11/16 00:25:44;;;;;;;27.23;18.92;;;;;;;;;;5265314;28;20040;-83
2022/11/16 00:28:15;;;;;;;21.23;17.65;;;;;;;;;;5280884;28;20033;-83
2022/11/16 00:30:46;;;;;;;22.13;18.50;;;;;;;;;;5262046;28;20036;-83
2022/11/16 00:33:18;;;;;;;22.25;18.52;;;;;;;;;;5280312;28;20032;-83
2022/11/16 00:35:52;;;;;;;29.15;17.80;;;;;;;;;;5282049;28;20596;-82
2022/11/16 00:38:23;;;;;;;23.95;18.83;;;;;;;;;;5278397;28;20040;-83
2022/11/16 00:40:54;;;;;;;22.95;19.42;;;;;;;;;;5260987;28;20025;-83
2022/11/16 00:43:26;;;;;;;24.10;19.47;;;;;;;;;;5278667;28;20029;-83
2022/11/16 00:45:57;;;;;;;27.90;20.27;;;;;;;;;;5264254;28;20331;-83
2022/11/16 00:48:28;;;;;;;23.48;18.80;;;;;;;;;;5280917;28;20045;-83
2022/11/16 00:50:59;;;;;;;24.02;19.33;;;;;;;;;;5280765;28;20025;-83
2022/11/16 00:53:31;;;;;;;22.83;18.88;;;;;;;;;;5278657;28;20593;-83
2022/11/16 00:56:02;;;;;;;24.63;19.70;;;;;;;;;;5260162;28;20508;-83
2022/11/16 00:58:33;;;;;;;22.48;18.35;;;;;;;;;;5281125;28;20102;-83
2022/11/16 01:01:05;;;;;;;21.70;18.30;;;;;;;;;;5262033;28;20031;-83
2022/11/16 01:03:40;;;;;;;23.45;17.98;;;;;;;;;;5273428;28;20478;-83
2022/11/16 01:06:12;;;;;;;21.83;17.90;;;;;;;;;;5268720;28;20013;-83
2022/11/16 01:08:43;;;;;;;23.00;18.65;;;;;;;;;;5275562;28;20033;-83
2022/11/16 01:14:06;;;;;;;23.05;18.02;;;;;;;;;;5279373;28;20216;-83
2022/11/16 01:16:38;;;;;;;23.52;17.92;;;;;;;;;;5280538;28;20117;-83
2022/11/16 01:19:09;;;;;;;22.58;17.70;;;;;;;;;;5262126;28;20033;-84
2022/11/16 01:21:40;;;;;;;25.73;17.80;;;;;;;;;;5264923;28;20029;-84
2022/11/16 01:24:11;;;;;;;20.58;17.17;;;;;;;;;;5262666;28;20743;-84
2022/11/16 01:26:42;;;;;;;22.93;16.83;;;;;;;;;;5276287;28;20112;-83
2022/11/16 01:29:14;;;;;;;19.90;16.17;;;;;;;;;;5279822;28;20600;-83
2022/11/16 01:31:45;;;;;;;20.00;17.10;;;;;;;;;;5260725;28;20071;-82
2022/11/16 01:34:16;;;;;;;25.23;16.90;;;;;;;;;;5265664;28;20292;-84
2022/11/16 01:36:48;;;;;;;20.42;16.38;;;;;;;;;;5279206;28;20029;-84
2022/11/16 01:39:19;;;;;;;17.05;15.25;;;;;;;;;;5266053;28;20059;-84
2022/11/16 01:41:50;;;;;;;20.23;16.03;;;;;;;;;;5260857;28;20478;-84
2022/11/16 01:44:30;;;;;;;20.50;14.98;;;;;;;;;;5266300;28;20354;-84
2022/11/16 01:47:04;;;;;;;19.05;15.13;;;;;;;;;;5281682;28;20079;-83
2022/11/16 01:49:38;;;;;;;16.85;14.10;;;;;;;;;;5279720;28;20172;-84
2022/11/16 01:52:12;;;;;;;18.02;14.68;;;;;;;;;;5281265;28;20119;-83
2022/11/16 01:54:45;;;;;;;25.30;17.13;;;;;;;;;;5279609;28;20933;-83
2022/11/16 01:57:22;;;;;;;21.60;16.95;;;;;;;;;;5281888;28;20021;-83
2022/11/16 01:59:56;;;;;;;21.42;17.08;;;;;;;;;;5296115;28;20085;-83
2022/11/16 02:02:27;;;;;;;20.73;17.92;;;;;;;;;;5290629;28;20048;-83
2022/11/16 02:04:59;;;;;;;22.38;17.25;;;;;;;;;;5293025;28;20017;-82
2022/11/16 02:10:47;;;;;;;22.80;16.92;;;;;;;;;;5286925;28;20036;-83
2022/11/16 02:13:24;;;;;;;19.17;17.17;;;;;;;;;;5282723;28;20428;-83
2022/11/16 02:15:55;;;;;;;19.70;17.25;;;;;;;;;;5280244;28;20061;-83
2022/11/16 02:18:37;;;;;;;20.30;17.10;;;;;;;;;;5280907;28;20505;-84
2022/11/16 02:21:20;;;;;;;21.05;17.63;;;;;;;;;;5280202;28;20082;-84
2022/11/16 02:24:03;;;;;;;21.30;17.45;;;;;;;;;;5279978;28;20036;-83
2022/11/16 02:26:40;;;;;;;21.40;17.25;;;;;;;;;;5281601;28;20037;-83
2022/11/16 02:29:17;;;;;;;22.10;17.25;;;;;;;;;;5277716;28;20036;-83
2022/11/16 02:31:52;;;;;;;26.70;18.10;;;;;;;;;;5260226;28;20170;-83
2022/11/16 02:34:25;;;;;;;23.27;17.70;;;;;;;;;;5278559;28;20087;-83
2022/11/16 02:36:58;;;;;;;18.25;15.30;;;;;;;;;;5281864;28;20025;-83
2022/11/16 02:39:30;;;;;;;16.15;14.45;;;;;;;;;;5265457;28;20055;-84
2022/11/16 02:42:03;;;;;;;15.18;13.57;;;;;;;;;;5280956;28;20401;-83
2022/11/16 02:44:36;;;;;;;15.05;12.45;;;;;;;;;;5277017;28;20091;-84
2022/11/16 02:47:10;;;;;;;15.25;13.75;;;;;;;;;;5276085;28;20045;-84
2022/11/16 02:49:44;;;;;;;13.73;12.32;;;;;;;;;;5275447;28;20036;-84
2022/11/16 02:52:16;;;;;;;14.40;12.90;;;;;;;;;;5281869;28;20040;-83
2022/11/16 02:54:47;;;;;;;13.95;12.40;;;;;;;;;;5262621;28;20505;-84
2022/11/16 02:57:22;;;;;;;12.67;10.63;;;;;;;;;;5262715;28;20021;-84
2022/11/16 02:59:57;;;;;;;12.70;11.40;;;;;;;;;;5275917;28;20796;-84
2022/11/16 03:02:43;;;;;;;12.13;10.85;;;;;;;;;;5261100;28;20110;-84
2022/11/16 03:05:20;;;;;;;10.40;9.38;;;;;;;;;;5277449;28;20485;-84
2022/11/16 03:07:51;;;;;;;;;;;;;;;;;;5274812;28;20025;-83
2022/11/16 03:13:13;;;;;;;10.93;9.07;;;;;;;;;;5275314;28;20044;-83
2022/11/16 03:15:46;;;;;;;10.48;8.20;;;;;;;;;;5278042;28;20025;-83
2022/11/16 03:18:17;;;;;;;9.82;8.15;;;;;;;;;;5276918;28;20037;-83
2022/11/16 03:20:51;;;;;;;10.18;8.05;;;;;;;;;;5260667;28;20539;-83
2022/11/16 03:23:22;;;;;;;8.27;7.40;;;;;;;;;;5277675;28;20465;-83
2022/11/16 03:25:55;;;;;;;7.97;7.18;;;;;;;;;;5261565;28;20087;-83
2022/11/16 03:28:35;;;;;;;7.97;7.10;;;;;;;;;;5275525;28;20276;-83
2022/11/16 03:31:11;;;;;;;7.72;6.35;;;;;;;;;;5262377;28;20025;-83
2022/11/16 03:33:47;;;;;;;8.02;5.90;;;;;;;;;;5273726;28;20036;-83
2022/11/16 03:36:24;;;;;;;6.03;4.68;;;;;;;;;;5260886;28;20426;-83
2022/11/16 03:38:58;;;;;;;5.85;3.97;;;;;;;;;;5277113;28;20120;-83
2022/11/16 03:41:30;;;;;;;4.40;3.70;;;;;;;;;;5275686;28;20041;-83
2022/11/16 03:44:01;;;;;;;4.38;3.20;;;;;;;;;;5277099;28;20428;-83
2022/11/16 03:46:33;;;;;;;4.18;3.08;;;;;;;;;;5278021;28;20025;-83
2022/11/16 03:49:04;;;;;;;5.13;3.13;;;;;;;;;;5284906;28;20045;-82
2022/11/16 03:51:36;;;;;;;3.30;3.00;;;;;;;;;;5256389;28;20038;-83
2022/11/16 03:54:07;;;;;;;5.10;3.80;;;;;;;;;;5279452;28;20527;-82
2022/11/16 03:56:38;;;;;;;4.53;3.80;;;;;;;;;;5259352;28;20041;-83
2022/11/16 03:59:09;;;;;;;5.13;3.90;;;;;;;;;;5277842;28;20310;-83
2022/11/16 04:01:40;;;;;;;4.67;4.07;;;;;;;;;;5261871;28;20035;-83
2022/11/16 04:24:10;;;;;;;5.00;4.50;;;;;;;;;;5277523;28;20672;-83
2022/11/16 04:24:23;;;;;;;5.82;4.18;;;;;;;;;;5286488;28;20044;-82
2022/11/16 04:29:47;;;;;;;5.80;4.72;;;;;;;;;;5274703;28;20037;-82
2022/11/16 04:37:47;;;;;;;6.25;4.60;;;;;;;;;;5274824;28;20483;-83
2022/11/16 04:38:18;;;;;;;9.27;4.97;;;;;;;;;;5279832;28;20029;-82
2022/11/16 04:40:49;;;;;;;7.68;4.65;;;;;;;;;;5266860;28;20551;-82
2022/11/16 04:43:20;;;;;;;8.88;5.13;;;;;;;;;;5287307;28;20017;-82
2022/11/16 04:48:42;;;;;;;10.43;4.97;;;;;;;;;;5295097;28;20049;-80
2022/11/16 04:51:13;;;;;;;7.30;5.10;;;;;;;;;;5290656;28;20142;-82
2022/11/16 04:53:44;;;;;;;12.50;5.70;;;;;;;;;;5284031;28;20066;-82
2022/11/16 04:56:15;;;;;;;10.00;5.53;;;;;;;;;;5280830;28;20032;-82
2022/11/16 04:58:46;;;;;;;9.73;6.25;;;;;;;;;;5278415;28;20292;-82
2022/11/16 05:02:06;;;;;;;11.60;5.78;;;;;;;;;;5264810;28;20036;-82
2022/11/16 05:04:09;;;;;;;13.02;6.43;;;;;;;;;;5277712;28;20413;-81
2022/11/16 05:06:40;;;;;;;9.32;6.03;;;;;;;;;;5280275;28;20047;-82
2022/11/16 05:09:12;;;;;;;10.05;5.95;;;;;;;;;;5280656;28;20037;-83
2022/11/16 05:11:43;;;;;;;11.13;6.20;;;;;;;;;;5283219;28;20512;-83
2022/11/16 05:14:14;;;;;;;9.67;5.40;;;;;;;;;;5279510;28;20032;-83
2022/11/16 05:16:45;;;;;;;11.80;5.95;;;;;;;;;;5278464;28;20291;-83
2022/11/16 05:22:06;;;;;;;10.68;5.55;;;;;;;;;;5278177;28;20032;-83
2022/11/16 05:24:37;;;;;;;8.43;5.90;;;;;;;;;;5276787;28;20507;-83
2022/11/16 05:27:10;;;;;;;11.57;5.68;;;;;;;;;;5278152;28;20275;-82
2022/11/16 05:29:41;;;;;;;8.38;5.30;;;;;;;;;;5281254;28;20370;-82
2022/11/16 05:32:13;;;;;;;10.45;5.60;;;;;;;;;;5270730;28;20039;-83
2022/11/16 05:34:44;;;;;;;9.93;5.65;;;;;;;;;;5271264;28;20037;-82
2022/11/16 05:37:16;;;;;;;9.18;5.63;;;;;;;;;;5293312;28;20051;-83
2022/11/16 05:39:47;;;;;;;9.93;5.55;;;;;;;;;;5290313;28;20082;-83
2022/11/16 05:42:18;;;;;;;11.02;5.30;;;;;;;;;;5271916;28;20088;-83
2022/11/16 05:44:50;;;;;;;9.20;6.10;;;;;;;;;;5292033;28;20033;-83
2022/11/16 05:47:21;;;;;;;11.85;6.25;;;;;;;;;;5293031;28;20315;-83
2022/11/16 05:49:52;;;;;;;10.27;6.15;;;;;;;;;;5291696;28;20033;-83
2022/11/16 05:52:23;;;;;;;13.10;6.90;;;;;;;;;;5269231;28;20029;-83
2022/11/16 05:54:54;;;;;;;12.63;7.23;;;;;;;;;;5261836;28;20140;-83
2022/11/16 05:57:25;;;;;;;14.07;7.90;;;;;;;;;;5281870;28;20267;-83
2022/11/16 05:59:57;;;;;;;12.03;8.30;;;;;;;;;;5260054;28;20271;-83
2022/11/16 06:02:28;;;;;;;14.23;8.80;;;;;;;;;;5279731;28;20848;-83
2022/11/16 06:04:59;;;;;;;16.23;9.30;;;;;;;;;;5259876;28;20637;-83
2022/11/16 06:07:30;;;;;;;13.63;9.27;;;;;;;;;;5279042;28;21089;-83
2022/11/16 06:10:01;;;;;;;16.23;9.47;;;;;;;;;;5260917;28;20120;-83
2022/11/16 06:12:33;;;;;;;17.35;8.63;;;;;;;;;;5278783;28;20956;-83
2022/11/16 06:15:04;;;;;;;18.10;9.25;;;;;;;;;;5268238;28;20497;-83
2022/11/16 06:17:35;;;;;;;15.00;10.48;;;;;;;;;;5282083;28;20115;-83
2022/11/16 06:20:07;;;;;;;13.48;9.15;;;;;;;;;;5276718;28;20028;-83
2022/11/16 06:22:38;;;;;;;16.25;9.68;;;;;;;;;;5279586;28;20056;-83
2022/11/16 06:25:09;;;;;;;17.30;10.05;;;;;;;;;;5278366;28;20048;-83
2022/11/16 06:27:41;;;;;;;17.83;9.67;;;;;;;;;;5258959;28;21399;-83
2022/11/16 06:30:12;;;;;;;15.30;9.60;;;;;;;;;;5279326;28;20267;-83
2022/11/16 06:32:43;;;;;;;13.82;9.40;;;;;;;;;;5276908;28;20744;-82
2022/11/16 06:35:15;;;;;;;16.97;9.77;;;;;;;;;;5276081;28;20024;-83
2022/11/16 06:37:46;;;;;;;23.13;9.90;;;;;;;;;;5279629;28;20606;-83
2022/11/16 06:40:17;;;;;;;18.83;9.60;;;;;;;;;;5277758;28;20452;-83
2022/11/16 06:42:48;;;;;;;13.65;9.38;;;;;;;;;;5274476;28;20279;-83
2022/11/16 06:45:19;;;;;;;16.03;9.37;;;;;;;;;;5275449;28;20030;-83
2022/11/16 06:47:51;;;;;;;19.03;10.20;;;;;;;;;;5276594;28;20292;-83
2022/11/16 06:50:22;;;;;;;21.67;9.40;;;;;;;;;;5269179;28;20267;-84
2022/11/16 06:52:53;;;;;;;17.02;9.90;;;;;;;;;;5277962;28;20025;-83
2022/11/16 06:55:28;;;;;;;21.80;9.52;;;;;;;;;;5277293;28;20051;-83
2022/11/16 06:57:59;;;;;;;16.63;9.73;;;;;;;;;;5274165;28;20061;-83
2022/11/16 07:00:31;;;;;;;17.48;9.30;;;;;;;;;;5274445;28;20147;-84
2022/11/16 07:03:02;;;;;;;21.75;9.73;;;;;;;;;;5261752;28;20400;-84
2022/11/16 07:05:37;;;;;;;23.45;10.40;;;;;;;;;;5279134;28;20125;-84
2022/11/16 07:08:09;;;;;;;19.27;9.70;;;;;;;;;;5276407;28;20116;-84
2022/11/16 07:10:40;;;;;;;16.77;8.43;;;;;;;;;;5276691;28;20037;-84
2022/11/16 07:13:11;;;;;;;16.03;8.60;;;;;;;;;;5278061;28;20047;-84
2022/11/16 07:15:42;;;;;;;23.43;8.93;;;;;;;;;;5277514;28;20223;-84
2022/11/16 07:18:13;;;;;;;14.17;7.87;;;;;;;;;;5276776;28;20711;-83
2022/11/16 07:20:44;;;;;;;17.50;8.50;;;;;;;;;;5264983;28;20280;-84
2022/11/16 07:23:16;;;;;;;20.67;9.90;;;;;;;;;;5278743;28;20323;-83
2022/11/16 07:25:47;;;;;;;19.17;10.27;;;;;;;;;;5276966;28;20372;-84
2022/11/16 07:28:18;;;;;;;21.97;12.33;;;;;;;;;;5301452;28;20224;-83
2022/11/16 07:30:49;;;;;;;22.75;12.90;;;;;;;;;;5298001;28;20303;-84
2022/11/16 07:33:20;;;;;;;26.77;15.10;;;;;;;;;;5287024;28;20087;-84
2022/11/16 07:35:52;;;;;;;25.40;14.23;;;;;;;;;;5269993;28;20029;-84
2022/11/16 07:38:23;;;;;;;31.37;15.47;;;;;;;;;;5279903;28;20397;-83
2022/11/16 07:40:58;;;;;;;35.97;17.38;;;;;;;;;;5263883;28;20440;-84
2022/11/16 07:43:30;;;;;;;36.70;19.27;;;;;;;;;;5276861;28;20041;-84
2022/11/16 07:46:05;;;;;;;37.88;19.23;;;;;;;;;;5278125;28;20017;-84
2022/11/16 07:48:37;;;;;;;28.67;17.08;;;;;;;;;;5272032;28;20049;-84
2022/11/16 07:51:10;;;;;;;35.03;16.92;;;;;;;;;;5277924;28;20032;-84
2022/11/16 07:53:42;;;;;;;35.53;15.00;;;;;;;;;;5263829;28;20033;-84
2022/11/16 07:56:13;;;;;;;24.48;12.25;;;;;;;;;;5262244;28;20037;-84
2022/11/16 07:58:44;;;;;;;23.40;11.27;;;;;;;;;;5262152;28;20055;-84
2022/11/16 08:01:16;;;;;;;27.75;10.48;;;;;;;;;;5276244;28;20581;-84
2022/11/16 08:03:51;;;;;;;20.42;8.93;;;;;;;;;;5278143;28;20029;-84
2022/11/16 08:06:23;;;;;;;15.52;9.23;;;;;;;;;;5264151;28;20048;-84
2022/11/16 08:08:57;;;;;;;21.33;9.95;;;;;;;;;;5278971;28;20104;-84
2022/11/16 08:11:29;;;;;;;15.43;7.97;;;;;;;;;;5277500;28;20028;-84
2022/11/16 08:14:00;;;;;;;13.38;7.72;;;;;;;;;;5262111;28;20037;-84
2022/11/16 08:16:32;;;;;;;19.52;7.10;;;;;;;;;;5269734;28;20116;-84
2022/11/16 08:19:03;;;;;;;15.55;6.72;;;;;;;;;;5279631;28;20033;-84
2022/11/16 08:21:34;;;;;;;22.80;6.90;;;;;;;;;;5282205;28;20139;-84
2022/11/16 08:24:06;;;;;;;25.57;7.00;;;;;;;;;;5266688;28;20612;-84
2022/11/16 08:26:37;;;;;;;16.38;6.05;;;;;;;;;;5279593;28;20291;-84
2022/11/16 08:29:08;;;;;;;14.55;6.05;;;;;;;;;;5268604;28;20021;-84
2022/11/16 08:31:39;;;;;;;18.13;5.30;;;;;;;;;;5274675;28;20032;-83
2022/11/16 08:34:11;;;;;;;17.30;5.88;;;;;;;;;;5299702;28;20024;-83
2022/11/16 08:36:42;;;;;;;18.87;6.83;;;;;;;;;;5269366;28;20041;-84
2022/11/16 08:39:16;;;;;;;11.93;5.20;;;;;;;;;;5276893;28;20240;-84
2022/11/16 08:41:49;;;;;;;18.77;6.00;;;;;;;;;;5287014;28;20337;-83
2022/11/16 08:44:20;;;;;;;16.27;5.20;;;;;;;;;;5286996;28;20470;-83
2022/11/16 08:46:51;;;;;;;17.20;5.20;;;;;;;;;;5282921;28;20056;-83
2022/11/16 08:49:22;;;;;;;18.87;5.20;;;;;;;;;;5282602;28;20352;-83
2022/11/16 08:51:54;;;;;;;16.90;4.35;;;;;;;;;;5267682;28;20025;-84
2022/11/16 08:54:27;;;;;;;14.02;4.28;;;;;;;;;;5269019;28;20390;-83
2022/11/16 08:56:58;;;;;;;16.67;4.78;;;;;;;;;;5266625;28;20143;-83
2022/11/16 08:59:29;;;;;;;16.60;4.80;;;;;;;;;;5268181;28;20138;-83
2022/11/16 09:02:00;;;;;;;18.43;4.90;;;;;;;;;;5286236;28;20305;-83
2022/11/16 09:04:32;;;;;;;10.93;4.13;;;;;;;;;;5281628;28;20255;-83
2022/11/16 09:07:03;;;;;;;16.02;5.35;;;;;;;;;;5266142;28;20171;-83
2022/11/16 09:09:34;;;;;;;13.70;4.50;;;;;;;;;;5285833;28;20029;-83
2022/11/16 09:12:06;;;;;;;14.32;4.57;;;;;;;;;;5286248;28;20275;-83
2022/11/16 09:14:37;;;;;;;15.30;4.30;;;;;;;;;;5275085;28;20115;-83
2022/11/16 09:17:08;;;;;;;10.57;3.33;;;;;;;;;;5260782;28;20264;-83
2022/11/16 09:19:39;;;;;;;14.38;4.35;;;;;;;;;;5284031;28;20663;-83
2022/11/16 09:22:10;;;;;;;13.73;4.55;;;;;;;;;;5282650;28;20438;-83
2022/11/16 09:24:42;;;;;;;14.13;4.40;;;;;;;;;;5283860;28;20032;-83
2022/11/16 09:27:13;;;;;;;14.40;4.73;;;;;;;;;;5262934;28;20686;-83
2022/11/16 09:29:45;;;;;;;17.20;4.55;;;;;;;;;;5282337;28;20271;-83
2022/11/16 09:32:16;;;;;;;10.13;3.25;;;;;;;;;;5284517;28;20043;-83
2022/11/16 09:34:47;;;;;;;25.10;4.53;;;;;;;;;;5285652;28;20041;-83
2022/11/16 09:37:18;;;;;;;13.38;3.83;;;;;;;;;;5284657;28;20033;-83
2022/11/16 09:39:49;;;;;;;8.53;2.80;;;;;;;;;;5285483;28;20021;-83
2022/11/16 09:42:30;;;;;;;17.23;3.10;;;;;;;;;;5285438;28;20259;-83
2022/11/16 09:45:21;;;;;;;12.85;3.67;;;;;;;;;;5285470;28;20249;-82
2022/11/16 09:47:56;;;;;;;12.45;3.38;;;;;;;;;;5265730;28;20163;-83
2022/11/16 09:50:31;;;;;;;12.38;3.25;;;;;;;;;;5266952;28;20035;-82
2022/11/16 09:53:12;;;;;;;14.85;3.50;;;;;;;;;;5267220;28;20044;-83
2022/11/16 09:56:07;;;;;;;14.70;3.47;;;;;;;;;;5266630;28;20032;-82
2022/11/16 09:58:47;;;;;;;11.45;2.90;;;;;;;;;;5278135;28;20045;-82
2022/11/16 10:01:26;;;;;;;17.33;3.85;;;;;;;;;;5284036;28;20385;-82
2022/11/16 10:04:01;;;;;;;17.40;3.45;;;;;;;;;;5285037;28;20115;-82
2022/11/16 10:06:50;;;;;;;15.20;2.85;;;;;;;;;;5285781;28;20179;-81
2022/11/16 10:09:22;;;;;;;10.80;2.50;;;;;;;;;;5272697;28;20441;-82
2022/11/16 10:12:12;;;;;;;7.50;2.60;;;;;;;;;;5279553;28;20021;-81
2022/11/16 10:14:43;;;;;;;9.00;2.63;;;;;;;;;;5295240;28;20029;-81
2022/11/16 10:17:33;;;;;;;9.57;2.40;;;;;;;;;;5278638;28;20455;-81
2022/11/16 10:20:23;;;;;;;9.57;2.33;;;;;;;;;;5263187;28;20030;-82
2022/11/16 10:23:12;;;;;;;4.32;1.63;;;;;;;;;;5263874;28;20048;-82
2022/11/16 10:25:44;;;;;;;8.27;1.98;;;;;;;;;;5263901;28;20055;-82
2022/11/16 10:28:22;;;;;;;11.07;2.00;;;;;;;;;;5271351;28;20037;-82
2022/11/16 10:30:59;;;;;;;7.75;2.08;;;;;;;;;;5282518;28;20393;-82
2022/11/16 10:33:35;;;;;;;6.38;1.67;;;;;;;;;;5284169;28;20540;-83
2022/11/16 10:36:11;;;;;;;6.13;1.85;;;;;;;;;;5284468;28;20029;-83
2022/11/16 10:38:43;;;;;;;4.55;1.25;;;;;;;;;;5284105;28;20037;-83
2022/11/16 10:41:23;;;;;;;8.93;1.90;;;;;;;;;;5265507;28;20024;-83
2022/11/16 10:43:56;;;;;;;6.15;1.70;;;;;;;;;;5284011;28;20043;-83
2022/11/16 10:46:32;;;;;;;5.20;1.73;;;;;;;;;;5283852;28;20021;-83
2022/11/16 10:49:07;;;;;;;7.38;1.77;;;;;;;;;;5282336;28;20029;-83
2022/11/16 10:51:38;;;;;;;7.70;2.13;;;;;;;;;;5264343;28;20059;-82
2022/11/16 10:54:12;;;;;;;15.07;2.30;;;;;;;;;;5262376;28;20494;-83
2022/11/16 10:56:45;;;;;;;6.90;1.92;;;;;;;;;;5261904;28;20605;-83
2022/11/16 10:59:18;;;;;;;6.82;1.52;;;;;;;;;;5277331;28;20032;-83
2022/11/16 11:01:50;;;;;;;6.00;1.65;;;;;;;;;;5280688;28;20029;-82
2022/11/16 11:04:28;;;;;;;8.27;1.88;;;;;;;;;;5282662;28;20021;-82
2022/11/16 11:07:01;;;;;;;6.43;1.58;;;;;;;;;;5281776;28;20037;-82
2022/11/16 11:09:33;;;;;;;7.13;1.58;;;;;;;;;;5263466;28;20048;-82
2022/11/16 11:15:21;;;;;;;6.18;1.40;;;;;;;;;;5281735;28;20021;-82
2022/11/16 11:18:14;;;;;;;9.05;1.52;;;;;;;;;;5277313;28;20033;-82
2022/11/16 11:20:51;;;;;;;8.05;1.52;;;;;;;;;;5276789;28;20393;-82
2022/11/16 11:23:23;;;;;;;6.78;1.98;;;;;;;;;;5263852;28;20580;-82
2022/11/16 11:25:59;;;;;;;6.68;1.70;;;;;;;;;;5282058;28;20036;-82
2022/11/16 11:28:31;;;;;;;5.25;1.52;;;;;;;;;;5280278;28;20588;-82
2022/11/16 11:31:24;;;;;;;7.07;1.60;;;;;;;;;;5281318;28;20024;-82
2022/11/16 11:34:01;;;;;;;7.75;1.35;;;;;;;;;;5280583;28;20436;-82
2022/11/16 11:36:37;;;;;;;9.25;1.85;;;;;;;;;;5269094;28;20186;-82
2022/11/16 11:39:11;;;;;;;5.80;1.48;;;;;;;;;;5258930;28;20025;-81
2022/11/16 11:41:43;;;;;;;4.82;1.30;;;;;;;;;;5273975;28;20036;-82
2022/11/16 11:44:16;;;;;;;6.30;1.50;;;;;;;;;;5280347;28;20052;-82
2022/11/16 11:47:16;;;;;;;6.95;1.60;;;;;;;;;;5220866;28;1637189;-82
2022/11/16 11:49:53;;;;;;;9.57;2.10;;;;;;;;;;5245153;28;20058;-82
2022/11/16 11:52:26;;;;;;;8.60;1.77;;;;;;;;;;5251091;28;20033;-82
2022/11/16 11:54:57;;;;;;;11.15;1.88;;;;;;;;;;5280152;28;20040;-81
2022/11/16 11:57:32;;;;;;;5.20;1.60;;;;;;;;;;5269793;28;20033;-82
2022/11/16 12:00:04;;;;;;;6.43;1.65;;;;;;;;;;5276331;28;20067;-82
2022/11/16 12:02:35;;;;;;;5.88;1.63;;;;;;;;;;5281308;28;20037;-82
2022/11/16 12:05:26;;;;;;;6.05;1.85;;;;;;;;;;5283229;28;20021;-82
2022/11/16 12:08:11;;;;;;;4.85;1.55;;;;;;;;;;5282573;28;20056;-82
2022/11/16 12:10:45;;;;;;;4.93;1.30;;;;;;;;;;5262022;28;20057;-82
2022/11/16 12:13:35;;;;;;;6.20;1.42;;;;;;;;;;5252198;28;20037;-82
2022/11/16 12:16:06;;;;;;;4.88;1.70;;;;;;;;;;5282139;28;20365;-82
2022/11/16 12:18:47;;;;;;;10.93;2.10;;;;;;;;;;5282209;28;20033;-82
2022/11/16 12:21:24;;;;;;;4.63;1.58;;;;;;;;;;5280692;28;20049;-82
2022/11/16 12:24:05;;;;;;;3.80;1.45;;;;;;;;;;5262502;28;20164;-82
2022/11/16 12:26:36;;;;;;;6.53;1.20;;;;;;;;;;5276879;28;20025;-82
2022/11/16 12:29:24;;;;;;;4.30;1.33;;;;;;;;;;5275053;28;20066;-82
2022/11/16 12:31:55;;;;;;;3.90;1.30;;;;;;;;;;5275978;28;20029;-82
2022/11/16 12:34:32;;;;;;;7.18;1.58;;;;;;;;;;5262828;28;20731;-83
2022/11/16 12:37:14;;;;;;;5.88;1.50;;;;;;;;;;5263702;28;20119;-82
2022/11/16 12:39:48;;;;;;;4.50;1.27;;;;;;;;;;5280975;28;20075;-82
2022/11/16 12:42:19;;;;;;;5.15;1.50;;;;;;;;;;5281985;28;20108;-82
2022/11/16 12:44:59;;;;;;;7.50;1.65;;;;;;;;;;5278702;28;20160;-82
2022/11/16 12:47:30;;;;;;;3.35;1.13;;;;;;;;;;5267408;28;20119;-82
2022/11/16 12:50:20;;;;;;;4.30;1.47;;;;;;;;;;5282582;28;20099;-82
2022/11/16 12:52:51;;;;;;;4.53;1.55;;;;;;;;;;5287079;28;20033;-81
2022/11/16 12:55:27;;;;;;;9.07;1.70;;;;;;;;;;5293585;28;20025;-81
2022/11/16 12:58:06;;;;;;;4.90;1.05;;;;;;;;;;5288529;28;20017;-81
2022/11/16 13:00:50;;;;;;;7.70;2.00;;;;;;;;;;5268217;28;20041;-81
2022/11/16 13:03:29;;;;;;;7.63;1.65;;;;;;;;;;5266045;28;20025;-82
2022/11/16 13:06:02;;;;;;;6.47;1.88;;;;;;;;;;5284104;28;20064;-81
2022/11/16 13:08:46;;;;;;;6.72;1.67;;;;;;;;;;5284513;28;20044;-81
2022/11/16 13:11:20;;;;;;;5.90;1.80;;;;;;;;;;5285609;28;20366;-82
2022/11/16 13:13:55;;;;;;;6.82;1.92;;;;;;;;;;5282460;28;20051;-82
2022/11/16 13:16:27;;;;;;;4.50;1.40;;;;;;;;;;5274308;28;20036;-82
2022/11/16 13:18:59;;;;;;;7.72;1.95;;;;;;;;;;5283392;28;20060;-82
2022/11/16 13:21:33;;;;;;;5.22;1.48;;;;;;;;;;5266948;28;20056;-82
2022/11/16 13:24:05;;;;;;;7.68;1.67;;;;;;;;;;5285072;28;20102;-82
2022/11/16 13:26:39;;;;;;;8.18;1.67;;;;;;;;;;5285065;28;20021;-82
2022/11/16 13:29:16;;;;;;;3.50;1.23;;;;;;;;;;5284936;28;20025;-82
2022/11/16 13:31:51;;;;;;;5.88;2.00;;;;;;;;;;5283463;28;20071;-82
2022/11/16 13:34:23;;;;;;;5.32;1.60;;;;;;;;;;5266912;28;20474;-82
2022/11/16 13:36:55;;;;;;;6.57;1.67;;;;;;;;;;5267167;28;20029;-81
2022/11/16 13:39:46;;;;;;;6.57;1.45;;;;;;;;;;5285342;28;20413;-82
2022/11/16 13:42:17;;;;;;;5.15;1.90;;;;;;;;;;5285341;28;20029;-81
2022/11/16 13:44:49;;;;;;;7.80;1.90;;;;;;;;;;5286340;28;20017;-82
2022/11/16 13:47:26;;;;;;;5.53;1.73;;;;;;;;;;5276384;28;20268;-81
2022/11/16 13:50:01;;;;;;;6.30;2.00;;;;;;;;;;5281123;28;20027;-82
2022/11/16 13:52:42;;;;;;;4.25;1.77;;;;;;;;;;5265939;28;20048;-82
2022/11/16 13:55:22;;;;;;;5.50;1.50;;;;;;;;;;5284716;28;20070;-81
2022/11/16 13:57:55;;;;;;;7.75;1.70;;;;;;;;;;5283870;28;20060;-82
2022/11/16 14:00:30;;;;;;;5.85;1.60;;;;;;;;;;5285140;28;20067;-81
2022/11/16 14:03:16;;;;;;;5.55;1.65;;;;;;;;;;5284725;28;20442;-82
2022/11/16 14:05:51;;;;;;;7.18;1.90;;;;;;;;;;5267137;28;20079;-79
2022/11/16 14:08:26;;;;;;;7.85;2.00;;;;;;;;;;5264425;28;20485;-82
2022/11/16 14:10:58;;;;;;;5.53;1.50;;;;;;;;;;5281371;28;20458;-82
2022/11/16 14:13:39;;;;;;;8.10;2.20;;;;;;;;;;5277453;28;20449;-81
2022/11/16 14:16:14;;;;;;;7.97;1.60;;;;;;;;;;5257277;28;20223;-81
2022/11/16 14:18:46;;;;;;;6.07;1.65;;;;;;;;;;5283938;28;20039;-81
2022/11/16 14:21:18;;;;;;;8.35;2.20;;;;;;;;;;5284132;28;20029;-81
2022/11/16 14:23:59;;;;;;;4.75;1.40;;;;;;;;;;5284142;28;20033;-81
2022/11/16 14:26:30;;;;;;;8.95;2.50;;;;;;;;;;5290763;28;20028;-81
2022/11/16 14:29:23;;;;;;;6.00;1.50;;;;;;;;;;5285830;28;20029;-81
2022/11/16 14:32:05;;;;;;;8.80;1.77;;;;;;;;;;5283137;28;20078;-81
2022/11/16 14:34:54;;;;;;;7.00;1.50;;;;;;;;;;5260722;28;20072;-81
2022/11/16 14:37:27;;;;;;;7.60;1.83;;;;;;;;;;5284385;28;20025;-81
2022/11/16 14:40:01;;;;;;;7.80;1.83;;;;;;;;;;5277238;28;20029;-81
2022/11/16 14:42:34;;;;;;;8.00;2.17;;;;;;;;;;5262563;28;20981;-81
2022/11/16 14:45:11;;;;;;;6.00;1.67;;;;;;;;;;5259672;28;20024;-82
2022/11/16 14:47:42;;;;;;;5.53;1.45;;;;;;;;;;5283700;28;20146;-82
2022/11/16 14:50:18;;;;;;;7.03;1.85;;;;;;;;;;5273477;28;20021;-82
2022/11/16 14:52:51;;;;;;;8.83;1.97;;;;;;;;;;5264559;28;20021;-81
2022/11/16 14:55:23;;;;;;;8.52;2.38;;;;;;;;;;5281600;28;20482;-81
2022/11/16 14:58:07;;;;;;;9.70;1.85;;;;;;;;;;5258591;28;20114;-81
2022/11/16 15:00:38;;;;;;;6.30;2.10;;;;;;;;;;5279819;28;21938;-81
2022/11/16 15:03:10;;;;;;;8.02;1.80;;;;;;;;;;5275186;28;20033;-81
2022/11/16 15:05:57;;;;;;;8.75;2.10;;;;;;;;;;5277060;28;20030;-82
2022/11/16 15:08:36;;;;;;;;;;;;;;;;;;5260746;28;20036;-81
2022/11/16 15:11:14;;;;;;;11.07;2.80;;;;;;;;;;5280563;28;20472;-82
2022/11/16 15:13:46;;;;;;;7.38;2.35;;;;;;;;;;5261419;28;20037;-81
2022/11/16 15:16:18;;;;;;;10.90;2.00;;;;;;;;;;5257920;28;20036;-81
2022/11/16 15:19:00;;;;;;;8.68;3.25;;;;;;;;;;5277475;28;20036;-81
2022/11/16 15:21:31;;;;;;;9.90;1.75;;;;;;;;;;5273758;28;20032;-82
2022/11/16 15:24:03;;;;;;;13.48;2.47;;;;;;;;;;5281519;28;20021;-82
2022/11/16 15:26:37;;;;;;;8.00;2.05;;;;;;;;;;5281847;28;20054;-82
2022/11/16 15:29:13;;;;;;;11.05;2.25;;;;;;;;;;5263737;28;20024;-82
2022/11/16 15:31:44;;;;;;;10.20;2.10;;;;;;;;;;5282466;28;20021;-82
2022/11/16 15:34:16;;;;;;;11.43;2.80;;;;;;;;;;5283526;28;20500;-81
2022/11/16 15:36:48;;;;;;;16.90;3.05;;;;;;;;;;5277949;28;20025;-82
2022/11/16 15:39:21;;;;;;;8.02;2.30;;;;;;;;;;5283047;28;20021;-82
2022/11/16 15:41:56;;;;;;;10.02;2.40;;;;;;;;;;5269633;28;20029;-81
2022/11/16 15:44:31;;;;;;;9.65;2.10;;;;;;;;;;5284803;28;20076;-81
2022/11/16 15:47:02;;;;;;;8.63;2.20;;;;;;;;;;5251995;28;20041;-82
2022/11/16 15:49:37;;;;;;;7.95;1.95;;;;;;;;;;5276059;28;20033;-82
2022/11/16 15:52:10;;;;;;;10.27;2.47;;;;;;;;;;5282572;28;20029;-82
2022/11/16 15:55:07;;;;;;;8.63;2.65;;;;;;;;;;5264617;28;20446;-82